createdAt,value
2022-10-05T00:01:28.087Z,7.50
2022-10-05T00:04:03.774Z,7.50
2022-10-05T00:06:31.985Z,7.50
2022-10-05T00:09:02.353Z,7.80
2022-10-05T00:11:30.531Z,7.80
2022-10-05T00:14:00.896Z,7.30
2022-10-05T00:16:30.705Z,7.60
2022-10-05T00:19:01.184Z,7.73
2022-10-05T00:21:30.839Z,8.03
2022-10-05T00:24:02.870Z,7.13
2022-10-05T00:26:35.162Z,7.10
2022-10-05T00:29:17.301Z,6.70
2022-10-05T00:31:45.553Z,6.90
2022-10-05T00:34:13.705Z,7.20
2022-10-05T00:36:42.058Z,6.97
2022-10-05T00:39:10.644Z,6.67
2022-10-05T00:42:00.134Z,6.60
2022-10-05T00:44:43.315Z,6.67
2022-10-05T00:47:29.237Z,6.73
2022-10-05T00:50:23.093Z,6.73
2022-10-05T00:53:04.323Z,7.20
2022-10-05T00:55:44.518Z,6.53
2022-10-05T00:58:26.408Z,7.00
2022-10-05T01:01:11.335Z,7.60
2022-10-05T01:03:53.661Z,7.20
2022-10-05T01:06:30.860Z,7.00
2022-10-05T01:09:10.541Z,6.60
2022-10-05T01:11:44.831Z,5.83
2022-10-05T01:14:20.548Z,6.27
2022-10-05T01:16:55.603Z,5.67
2022-10-05T01:19:46.881Z,6.30
2022-10-05T01:22:30.476Z,6.13
2022-10-05T01:25:13.195Z,6.90
2022-10-05T01:27:53.514Z,6.37
2022-10-05T01:30:23.228Z,6.30
2022-10-05T01:33:01.084Z,6.27
2022-10-05T01:35:45.681Z,6.10
2022-10-05T01:38:33.681Z,5.97
2022-10-05T01:41:13.882Z,6.43
2022-10-05T01:43:49.262Z,6.20
2022-10-05T01:46:30.332Z,6.40
2022-10-05T01:49:18.901Z,6.13
2022-10-05T01:52:02.031Z,5.97
2022-10-05T01:54:41.176Z,6.50
2022-10-05T01:57:21.672Z,6.63
2022-10-05T02:00:06.563Z,7.00
2022-10-05T02:02:40.768Z,6.63
2022-10-05T02:05:16.243Z,6.83
2022-10-05T02:07:50.514Z,6.30
2022-10-05T02:10:25.443Z,6.67
2022-10-05T02:13:03.399Z,6.77
2022-10-05T02:15:41.224Z,6.77
2022-10-05T02:18:21.441Z,7.00
2022-10-05T02:20:56.738Z,6.63
2022-10-05T02:23:29.410Z,7.57
2022-10-05T02:26:00.003Z,7.30
2022-10-05T02:28:34.936Z,7.00
2022-10-05T02:31:10.803Z,6.83
2022-10-05T02:33:39.534Z,7.27
2022-10-05T02:36:15.941Z,7.40
2022-10-05T02:39:00.310Z,7.40
2022-10-05T02:41:44.050Z,7.90
2022-10-05T02:44:24.114Z,7.67
2022-10-05T02:47:00.750Z,7.37
2022-10-05T02:49:40.011Z,8.57
2022-10-05T02:52:15.399Z,7.83
2022-10-05T02:54:55.444Z,7.93
2022-10-05T02:57:32.071Z,8.57
2022-10-05T03:00:07.225Z,8.63
2022-10-05T03:02:42.521Z,8.87
2022-10-05T03:05:20.444Z,8.47
2022-10-05T03:07:56.906Z,8.63
2022-10-05T03:10:31.417Z,8.50
2022-10-05T03:13:07.553Z,8.77
2022-10-05T03:16:04.491Z,8.13
2022-10-05T03:18:53.592Z,9.03
2022-10-05T03:21:43.738Z,8.77
2022-10-05T03:24:28.559Z,8.80
2022-10-05T03:27:04.621Z,8.90
2022-10-05T03:29:41.475Z,8.67
2022-10-05T03:32:22.326Z,8.67
2022-10-05T03:34:58.283Z,8.63
2022-10-05T03:37:37.779Z,8.43
2022-10-05T03:40:16.510Z,8.23
2022-10-05T03:43:13.212Z,8.60
2022-10-05T03:45:51.181Z,8.57
2022-10-05T03:48:27.190Z,7.93
2022-10-05T03:51:09.396Z,7.90
2022-10-05T03:53:43.508Z,8.27
2022-10-05T03:56:17.983Z,8.23
2022-10-05T03:58:54.591Z,7.70
2022-10-05T04:01:37.207Z,8.50
2022-10-05T04:04:10.946Z,7.73
2022-10-05T04:06:47.429Z,7.90
2022-10-05T04:09:19.572Z,7.57
2022-10-05T04:11:53.884Z,8.50
2022-10-05T04:14:27.899Z,8.17
2022-10-05T04:17:01.230Z,8.00
2022-10-05T04:19:33.939Z,7.57
2022-10-05T04:22:11.031Z,7.87
2022-10-05T04:24:45.726Z,7.60
2022-10-05T04:27:19.524Z,7.87
2022-10-05T04:29:55.037Z,7.40
2022-10-05T04:32:37.563Z,7.90
2022-10-05T04:35:44.134Z,7.00
2022-10-05T04:38:31.296Z,7.20
2022-10-05T04:41:17.985Z,7.80
2022-10-05T04:44:02.911Z,7.00
2022-10-05T04:46:48.187Z,7.57
2022-10-05T04:49:35.641Z,7.20
2022-10-05T04:52:18.203Z,8.00
2022-10-05T04:55:05.465Z,7.67
2022-10-05T04:57:41.905Z,7.13
2022-10-05T05:00:24.914Z,7.33
2022-10-05T05:03:26.078Z,8.30
2022-10-05T05:06:18.324Z,8.10
2022-10-05T05:09:15.029Z,7.43
2022-10-05T05:12:03.927Z,7.93
2022-10-05T05:14:48.004Z,8.20
2022-10-05T05:17:35.106Z,7.97
2022-10-05T05:20:18.298Z,8.00
2022-10-05T05:22:53.972Z,8.23
2022-10-05T05:25:36.354Z,8.73
2022-10-05T05:28:18.932Z,9.10
2022-10-05T05:30:57.009Z,8.83
2022-10-05T05:33:31.121Z,8.53
2022-10-05T05:36:23.934Z,8.63
2022-10-05T05:39:07.532Z,9.17
2022-10-05T05:41:40.462Z,9.17
2022-10-05T05:44:22.584Z,8.60
2022-10-05T05:47:03.926Z,9.13
2022-10-05T05:49:48.099Z,9.50
2022-10-05T05:52:24.007Z,8.93
2022-10-05T05:54:59.180Z,8.77
2022-10-05T05:57:33.626Z,9.47
2022-10-05T06:00:19.511Z,8.57
2022-10-05T06:02:54.337Z,9.43
2022-10-05T06:05:31.829Z,9.63
2022-10-05T06:08:08.388Z,10.00
2022-10-05T06:10:43.713Z,8.83
2022-10-05T06:13:20.309Z,9.40
2022-10-05T06:15:55.315Z,8.73
2022-10-05T06:18:24.755Z,9.33
2022-10-05T06:20:59.897Z,9.03
2022-10-05T06:23:39.468Z,9.33
2022-10-05T06:26:26.047Z,9.63
2022-10-05T06:28:59.551Z,9.73
2022-10-05T06:31:59.075Z,9.70
2022-10-05T06:34:57.631Z,10.37
2022-10-05T06:37:46.002Z,9.50
2022-10-05T06:40:28.674Z,8.70
2022-10-05T06:43:17.024Z,9.53
2022-10-05T06:46:05.113Z,9.50
2022-10-05T06:48:51.914Z,10.23
2022-10-05T06:51:27.340Z,9.23
2022-10-05T06:54:04.561Z,9.70
2022-10-05T06:56:40.456Z,10.03
2022-10-05T06:59:15.170Z,9.27
2022-10-05T07:01:55.942Z,10.17
2022-10-05T07:04:53.614Z,9.53
2022-10-05T07:07:31.036Z,9.33
2022-10-05T07:10:17.302Z,9.70
2022-10-05T07:13:04.019Z,9.10
2022-10-05T07:15:43.817Z,9.53
2022-10-05T07:18:40.208Z,9.93
2022-10-05T07:21:21.758Z,9.33
2022-10-05T07:24:01.950Z,10.03
2022-10-05T07:26:36.738Z,9.77
2022-10-05T07:29:33.697Z,9.50
2022-10-05T07:32:15.689Z,9.30
2022-10-05T07:34:55.997Z,9.97
2022-10-05T07:37:53.382Z,9.27
2022-10-05T07:40:29.409Z,9.20
2022-10-05T07:43:14.394Z,9.80
2022-10-05T07:45:48.097Z,9.20
2022-10-05T07:48:21.994Z,9.57
2022-10-05T07:51:01.359Z,8.53
2022-10-05T07:53:38.512Z,9.17
2022-10-05T07:56:15.969Z,8.97
2022-10-05T07:58:48.401Z,8.43
2022-10-05T08:01:22.646Z,8.87
2022-10-05T08:03:55.414Z,8.57
2022-10-05T08:06:41.776Z,9.13
2022-10-05T08:09:31.691Z,8.53
2022-10-05T08:12:15.460Z,8.43
2022-10-05T08:14:53.745Z,9.60
2022-10-05T08:17:37.021Z,9.00
2022-10-05T08:20:20.075Z,8.70
2022-10-05T08:22:56.654Z,7.77
2022-10-05T08:25:35.844Z,8.53
2022-10-05T08:28:11.734Z,8.47
2022-10-05T08:30:55.681Z,7.93
2022-10-05T08:33:26.864Z,7.73
2022-10-05T08:36:05.722Z,7.67
2022-10-05T08:38:35.738Z,7.43
2022-10-05T08:41:59.104Z,7.40
2022-10-05T08:45:19.829Z,7.97
2022-10-05T08:48:45.843Z,7.03
2022-10-05T08:52:00.351Z,7.37
2022-10-05T08:54:48.029Z,7.07
2022-10-05T08:57:44.257Z,7.00
2022-10-05T09:00:18.668Z,7.13
2022-10-05T09:03:19.440Z,6.40
2022-10-05T09:06:26.617Z,6.10
2022-10-05T09:09:32.217Z,6.57
2022-10-05T09:12:44.290Z,5.83
2022-10-05T09:15:44.120Z,6.53
2022-10-05T09:18:50.649Z,5.30
2022-10-05T09:21:40.851Z,6.33
2022-10-05T09:24:26.182Z,5.83
2022-10-05T09:27:04.824Z,5.77
2022-10-05T09:30:23.231Z,6.20
2022-10-05T09:33:28.164Z,5.27
2022-10-05T09:37:07.343Z,5.80
2022-10-05T09:40:29.119Z,5.87
2022-10-05T09:43:45.183Z,5.37
2022-10-05T09:46:45.995Z,4.50
2022-10-05T09:49:48.162Z,4.90
2022-10-05T09:52:53.435Z,4.77
2022-10-05T09:55:50.704Z,4.37
2022-10-05T09:58:50.758Z,4.07
2022-10-05T10:02:22.244Z,4.03
2022-10-05T10:05:20.172Z,4.27
2022-10-05T10:08:11.450Z,4.03
2022-10-05T10:11:01.368Z,4.13
2022-10-05T10:14:17.619Z,4.20
2022-10-05T10:17:07.900Z,4.40
2022-10-05T10:20:14.631Z,4.23
2022-10-05T10:23:11.073Z,3.90
2022-10-05T10:26:25.479Z,4.20
2022-10-05T10:29:23.280Z,4.27
2022-10-05T10:32:14.130Z,4.40
2022-10-05T10:35:12.992Z,4.17
2022-10-05T10:38:24.771Z,4.23
2022-10-05T10:41:50.493Z,4.83
2022-10-05T10:45:21.209Z,4.83
2022-10-05T10:48:03.613Z,5.17
2022-10-05T10:51:13.552Z,4.83
2022-10-05T10:54:37.895Z,4.87
2022-10-05T10:57:10.740Z,4.90
2022-10-05T11:00:24.437Z,4.97
2022-10-05T11:03:45.544Z,5.60
2022-10-05T11:06:46.803Z,5.10
2022-10-05T11:09:33.894Z,5.03
2022-10-05T11:13:07.325Z,5.50
2022-10-05T11:16:00.536Z,5.13
2022-10-05T11:18:53.375Z,5.03
2022-10-05T11:21:34.222Z,4.73
2022-10-05T11:24:50.198Z,5.43
2022-10-05T11:27:40.395Z,5.50
2022-10-05T11:31:03.857Z,5.20
2022-10-05T11:34:31.267Z,5.50
2022-10-05T11:37:51.812Z,5.27
2022-10-05T11:41:12.624Z,4.97
2022-10-05T11:44:20.013Z,5.33
2022-10-05T11:46:58.439Z,5.30
2022-10-05T11:49:37.479Z,5.30
2022-10-05T11:52:14.218Z,5.10
2022-10-05T11:55:17.672Z,5.40
2022-10-05T11:57:52.787Z,5.43
2022-10-05T12:00:24.000Z,4.83
2022-10-05T12:03:11.558Z,5.23
2022-10-05T12:05:52.751Z,5.13
2022-10-05T12:08:37.405Z,5.07
2022-10-05T12:11:24.045Z,5.10
2022-10-05T12:13:59.065Z,4.90
2022-10-05T12:16:34.263Z,5.00
2022-10-05T12:19:13.515Z,4.43
2022-10-05T12:21:49.887Z,4.67
2022-10-05T12:24:28.075Z,4.57
2022-10-05T12:27:01.274Z,4.43
2022-10-05T12:29:38.850Z,4.30
2022-10-05T12:32:17.057Z,4.70
2022-10-05T12:35:01.800Z,4.30
2022-10-05T12:37:43.424Z,4.37
2022-10-05T12:40:34.902Z,3.80
2022-10-05T12:43:13.241Z,4.20
2022-10-05T12:46:00.283Z,4.40
2022-10-05T12:49:16.211Z,4.00
2022-10-05T12:51:49.386Z,3.93
2022-10-05T12:54:25.916Z,4.07
2022-10-05T12:56:59.127Z,3.93
2022-10-05T12:59:41.814Z,3.93
2022-10-05T13:02:29.456Z,4.20
2022-10-05T13:05:06.070Z,4.00
2022-10-05T13:07:49.295Z,4.20
2022-10-05T13:10:32.493Z,4.50
2022-10-05T13:13:18.491Z,4.40
2022-10-05T13:15:53.272Z,4.80
2022-10-05T13:18:31.145Z,4.70
2022-10-05T13:21:07.289Z,4.53
2022-10-05T13:23:53.801Z,4.80
2022-10-05T13:26:34.540Z,5.17
2022-10-05T13:29:16.855Z,4.97
2022-10-05T13:31:49.196Z,4.30
2022-10-05T13:34:28.035Z,5.07
2022-10-05T13:37:10.664Z,5.40
2022-10-05T13:40:00.147Z,4.60
2022-10-05T13:42:37.849Z,4.80
2022-10-05T13:45:15.126Z,5.10
2022-10-05T13:47:58.018Z,4.40
2022-10-05T13:50:33.441Z,4.87
2022-10-05T13:53:14.828Z,4.60
2022-10-05T13:55:50.075Z,4.93
2022-10-05T13:58:33.666Z,4.63
2022-10-05T14:01:06.497Z,5.03
2022-10-05T14:03:37.476Z,4.63
2022-10-05T14:06:13.960Z,4.60
2022-10-05T14:08:52.997Z,4.20
2022-10-05T14:11:32.147Z,4.37
2022-10-05T14:14:16.299Z,4.10
2022-10-05T14:16:54.415Z,4.50
2022-10-05T14:19:28.991Z,4.40
2022-10-05T14:22:02.363Z,4.07
2022-10-05T14:24:49.185Z,4.50
2022-10-05T14:27:26.967Z,3.73
2022-10-05T14:30:00.754Z,4.20
2022-10-05T14:32:33.050Z,4.20
2022-10-05T14:35:14.113Z,4.10
2022-10-05T14:37:51.911Z,3.83
2022-10-05T14:40:30.968Z,3.60
2022-10-05T14:43:01.764Z,3.73
2022-10-05T14:45:33.325Z,3.87
2022-10-05T14:48:12.278Z,4.03
2022-10-05T14:50:55.530Z,4.10
2022-10-05T14:53:26.362Z,4.30
2022-10-05T14:56:53.187Z,4.47
2022-10-05T14:59:37.370Z,4.53
2022-10-05T15:02:35.251Z,4.30
2022-10-05T15:05:14.345Z,4.93
2022-10-05T15:07:44.972Z,5.00
2022-10-05T15:10:29.871Z,4.77
2022-10-05T15:13:11.494Z,4.63
2022-10-05T15:15:48.785Z,4.90
2022-10-05T15:18:32.364Z,4.40
2022-10-05T15:21:26.445Z,4.80
2022-10-05T15:23:58.623Z,4.77
2022-10-05T15:26:44.163Z,5.00
2022-10-05T15:29:32.878Z,4.60
2022-10-05T15:32:15.808Z,4.03
2022-10-05T15:35:07.139Z,4.33
2022-10-05T15:37:43.127Z,4.30
2022-10-05T15:40:23.008Z,4.00
2022-10-05T15:42:57.691Z,4.30
2022-10-05T15:45:32.752Z,4.23
2022-10-05T15:48:04.779Z,4.10
2022-10-05T15:50:44.429Z,4.03
2022-10-05T15:53:21.280Z,3.70
2022-10-05T15:55:55.805Z,4.73
2022-10-05T15:58:51.436Z,4.10
2022-10-05T16:01:27.565Z,4.30
2022-10-05T16:04:02.369Z,3.83
2022-10-05T16:06:56.722Z,4.37
2022-10-05T16:09:56.153Z,3.80
2022-10-05T16:12:38.619Z,3.97
2022-10-05T16:15:26.369Z,4.10
2022-10-05T16:18:43.694Z,4.07
2022-10-05T16:21:26.872Z,4.47
2022-10-05T16:24:15.562Z,4.53
2022-10-05T16:26:58.803Z,4.30
2022-10-05T16:29:40.737Z,4.30
2022-10-05T16:32:15.289Z,4.27
2022-10-05T16:35:02.682Z,4.77
2022-10-05T16:37:41.199Z,4.37
2022-10-05T16:40:20.930Z,4.73
2022-10-05T16:43:07.260Z,4.60
2022-10-05T16:45:51.747Z,4.40
2022-10-05T16:48:26.817Z,4.80
2022-10-05T16:51:11.533Z,4.70
2022-10-05T16:53:46.442Z,4.80
2022-10-05T16:56:23.354Z,4.67
2022-10-05T16:59:06.993Z,4.20
2022-10-05T17:01:52.227Z,3.90
2022-10-05T17:04:41.824Z,3.87
2022-10-05T17:07:44.395Z,4.10
2022-10-05T17:10:40.314Z,4.07
2022-10-05T17:13:28.444Z,3.87
2022-10-05T17:16:09.164Z,3.60
2022-10-05T17:19:27.843Z,3.40
2022-10-05T17:22:00.586Z,3.40
2022-10-05T17:24:42.958Z,3.93
2022-10-05T17:27:36.137Z,2.90
2022-10-05T17:31:09.804Z,3.00
2022-10-05T17:34:30.040Z,3.07
2022-10-05T17:37:04.758Z,3.00
2022-10-05T17:39:52.349Z,3.07
2022-10-05T17:42:47.266Z,3.20
2022-10-05T17:45:54.633Z,3.03
2022-10-05T17:49:06.697Z,3.30
2022-10-05T17:52:43.057Z,3.47
2022-10-05T17:55:30.146Z,3.17
2022-10-05T17:58:01.487Z,2.77
2022-10-05T18:00:44.373Z,3.27
2022-10-05T18:03:40.984Z,3.23
2022-10-05T18:06:37.347Z,3.23
2022-10-05T18:09:36.597Z,3.47
2022-10-05T18:12:45.197Z,3.07
2022-10-05T18:15:46.515Z,3.33
2022-10-05T18:18:56.361Z,3.30
2022-10-05T18:21:40.046Z,2.90
2022-10-05T18:25:05.721Z,2.93
2022-10-05T18:28:09.904Z,3.00
2022-10-05T18:30:58.639Z,3.20
2022-10-05T18:33:59.631Z,3.33
2022-10-05T18:37:03.407Z,3.00
2022-10-05T18:39:51.489Z,3.37
2022-10-05T18:42:28.718Z,3.50
2022-10-05T18:45:01.524Z,3.47
2022-10-05T18:47:40.438Z,3.20
2022-10-05T18:50:28.498Z,3.50
2022-10-05T18:53:18.030Z,3.50
2022-10-05T18:55:55.139Z,3.70
2022-10-05T18:58:31.227Z,3.10
2022-10-05T19:01:27.951Z,3.30
2022-10-05T19:04:14.049Z,3.30
2022-10-05T19:06:54.352Z,2.87
2022-10-05T19:09:45.174Z,3.23
2022-10-05T19:12:29.267Z,3.50
2022-10-05T19:15:11.896Z,3.20
2022-10-05T19:18:26.667Z,3.10
2022-10-05T19:21:03.903Z,3.03
2022-10-05T19:24:15.548Z,3.20
2022-10-05T19:27:02.667Z,2.80
2022-10-05T19:29:48.425Z,2.67
2022-10-05T19:32:26.207Z,3.03
2022-10-05T19:35:10.452Z,3.33
2022-10-05T19:37:47.964Z,3.10
2022-10-05T19:40:29.230Z,2.83
2022-10-05T19:43:23.835Z,3.43
2022-10-05T19:46:08.833Z,3.23
2022-10-05T19:48:44.382Z,3.80
2022-10-05T19:51:16.686Z,4.13
2022-10-05T19:53:50.455Z,4.00
2022-10-05T19:56:21.210Z,4.17
2022-10-05T19:58:51.897Z,4.90
2022-10-05T20:01:30.846Z,4.37
2022-10-05T20:03:59.395Z,4.80
2022-10-05T20:06:29.573Z,4.03
2022-10-05T20:09:03.732Z,3.97
2022-10-05T20:11:34.688Z,3.80
2022-10-05T20:14:20.928Z,3.83
2022-10-05T20:17:44.564Z,3.77
2022-10-05T20:20:32.168Z,3.23
2022-10-05T20:23:23.242Z,3.50
2022-10-05T20:26:05.533Z,3.60
2022-10-05T20:28:34.234Z,3.60
2022-10-05T20:31:02.593Z,2.90
2022-10-05T20:33:34.282Z,2.83
2022-10-05T20:36:03.899Z,2.20
2022-10-05T20:38:40.634Z,1.90
2022-10-05T20:41:09.497Z,1.50
2022-10-05T20:43:39.317Z,1.63
2022-10-05T20:46:07.965Z,1.43
2022-10-05T20:48:37.399Z,1.60
2022-10-05T20:51:05.883Z,1.00
2022-10-05T20:53:34.046Z,0.93
2022-10-05T20:56:02.398Z,0.97
2022-10-05T20:58:30.965Z,0.70
2022-10-05T21:01:18.402Z,0.67
2022-10-05T21:03:48.323Z,0.70
2022-10-05T21:06:17.872Z,0.73
2022-10-05T21:08:46.294Z,0.57
2022-10-05T21:11:15.131Z,0.60
2022-10-05T21:13:44.761Z,0.63
2022-10-05T21:16:14.008Z,0.60
2022-10-05T21:18:44.385Z,0.60
2022-10-05T21:21:14.276Z,0.50
2022-10-05T21:23:42.356Z,0.63
2022-10-05T21:26:11.700Z,0.60
2022-10-05T21:28:40.268Z,0.90
2022-10-05T21:31:08.927Z,0.70
2022-10-05T21:33:37.524Z,0.50
2022-10-05T21:36:06.106Z,0.60
2022-10-05T21:38:36.610Z,0.50
2022-10-05T21:41:05.008Z,0.53
2022-10-05T21:43:33.487Z,0.40
2022-10-05T21:46:02.215Z,0.50
2022-10-05T21:48:32.175Z,0.50
2022-10-05T21:51:01.259Z,0.50
2022-10-05T21:53:36.953Z,0.50
2022-10-05T21:56:10.840Z,0.50
2022-10-05T21:58:40.193Z,0.70
2022-10-05T22:01:08.971Z,0.77
2022-10-05T22:03:38.002Z,0.90
2022-10-05T22:06:06.916Z,0.80
2022-10-05T22:08:36.687Z,0.80
2022-10-05T22:11:13.110Z,0.80
2022-10-05T22:13:44.604Z,0.80
2022-10-05T22:16:13.647Z,1.13
2022-10-05T22:18:42.541Z,0.80
2022-10-05T22:21:13.007Z,0.70
2022-10-05T22:23:44.954Z,1.00
2022-10-05T22:26:16.662Z,1.40
2022-10-05T22:28:46.683Z,1.20
2022-10-05T22:31:15.327Z,1.10
2022-10-05T22:33:43.948Z,0.93
2022-10-05T22:36:12.070Z,1.00
2022-10-05T22:38:40.207Z,1.30
2022-10-05T22:41:12.507Z,1.17
2022-10-05T22:43:40.986Z,0.97
2022-10-05T22:46:10.801Z,1.10
2022-10-05T22:48:39.087Z,1.20
2022-10-05T22:51:07.916Z,1.07
2022-10-05T22:53:36.546Z,1.20
2022-10-05T22:56:10.402Z,1.17
2022-10-05T22:58:40.904Z,1.30
2022-10-05T23:01:11.436Z,1.20
2022-10-05T23:03:40.319Z,0.93
2022-10-05T23:06:10.873Z,1.37
2022-10-05T23:08:41.634Z,1.13
2022-10-05T23:11:12.336Z,1.10
2022-10-05T23:13:42.289Z,1.47
2022-10-05T23:16:13.637Z,1.30
2022-10-05T23:18:45.365Z,1.57
2022-10-05T23:21:13.812Z,1.47
2022-10-05T23:23:47.243Z,1.10
2022-10-05T23:26:16.742Z,1.07
2022-10-05T23:28:47.525Z,1.53
2022-10-05T23:31:18.007Z,1.10
2022-10-05T23:33:46.258Z,1.60
2022-10-05T23:36:17.163Z,1.10
2022-10-05T23:38:46.444Z,1.20
2022-10-05T23:41:15.972Z,1.23
2022-10-05T23:43:45.494Z,1.57
2022-10-05T23:46:15.221Z,1.10
2022-10-05T23:48:43.436Z,1.20
2022-10-05T23:51:14.169Z,1.13
2022-10-05T23:53:42.322Z,1.30
2022-10-05T23:56:10.414Z,1.40
2022-10-05T23:58:38.540Z,1.40
